DFFD/OUA METAR and TAF weather

Enter ICAO airport designator
Station Type Date Time Source
DFFD METAR 2019/08/24 09:00 UTC NOAA

DFFD 240900Z 19009KT 9999 FEW018 SCT024 26/24 Q1014 NOSIG


Station Type Date Time Source
DFFD Decoded METAR 2019/08/24 09:00 UTC NOAA

Station name not available
Aug 24, 2019 - 05:00 AM EDT / 2019.08.24 0900 UTC
Wind: from the S (190 degrees) at 10 MPH (9 KT):0
Visibility: greater than 7 mile(s):0
Sky conditions: partly cloudy
Temperature: 78 F (26 C)
Dew Point: 75 F (24 C)
Relative Humidity: 88%
Pressure (altimeter): 29.94 in. Hg (1014 hPa)
ob: DFFD 240900Z 19009KT 9999 FEW018 SCT024 26/24 Q1014 NOSIG
cycle: 9

Station Type Date Time Source
DFFD TAF 2019/08/24 06:21 UTC NOAA

TAF TAF DFFD 240500Z 2406/2512 24008KT 9999 SCT020 PROB30
TEMPO 2406/2410 4000 BR BKN010
TEMPO 2414/2424 4000 TSRA BKN010 FEW033CB

Example: see airport list